Bayonne, NJ (07002)

12:49 PM EDT on July 26, 2016 (GMT -0400)
West Brighton | | Change Station

Elev 121 ft 40.63 °N, 74.11 °W | Updated 2 seconds ago

Scattered Clouds
Scattered Clouds
88.5 °F
Feels Like 93 °F
N
4.7
Wind Variable Wind from WNW

Today
High -- | Low -- °F
--% Chance of Precip.
Yesterday
High -- | Low -- °F
Precip. -- in
Pressure 29.91 in
Visibility 10.0 miles
Clouds Few 4500 ft
Scattered Clouds 25000 ft
Heat Index 93 °F
Dew Point 69 °F
Humidity 52%
Rainfall 0.40 in
Snow Depth Not available.
5:48 AM 8:17 PM
Waning Gibbous, 53% visible
METAR KEWR 261551Z 30009KT 10SM FEW045 SCT250 31/19 A2990 RMK AO2 SLP126 T03110189
Pressure 29.91 in
Visibility 10.0 miles
Clouds Few 4500 ft
Scattered Clouds 25000 ft
Heat Index 93 °F
Dew Point 69 °F
Humidity 52%
Rainfall 0.40 in
Snow Depth Not available.
5:48 AM 8:17 PM
Waning Gibbous, 53% visible
METAR KEWR 261551Z 30009KT 10SM FEW045 SCT250 31/19 A2990 RMK AO2 SLP126 T03110189

10-Day Weather Forecast

Almanac

Astronomy

Jul. 26, 2016 Rise Set
Actual Time
Civil Twilight
Nautical Twilight
Astronomical Twilight
Moon
Length of Visible Light
Length of Day
Tomorrow will be .
, % of the Moon is Illuminated

Today's Extremes

State Highs State Lows

Community

WunderPhotos

Upload Photos

1,927,633 photos uploaded!

WunderBlog® & News

Nearby

Air Quality

  Air Quality AQ Index Pollutant
Not available.

Snow Depth

Station Depth Elevation

Earthquake Activity

City Distance Mag. Time & Date
Minimum magnitude displayed is 2.5.

Coastal Water Temperatures

Place Temperature

Stations

Nearby Weather Stations

Station Location Temp. Windchill Dew Point Humidity Wind Precip. Elev Updated Type
                   

Watches & Warnings

There are currently no watches in effect.